sensor_id;sensor_type;location;lat;lon;timestamp;temperature;humidity
39277;DHT22;63149;48.086;-1.606;2022-10-16T05:01:50;14.80;99.90
39277;DHT22;63149;48.086;-1.606;2022-10-16T05:04:17;14.80;99.90
39277;DHT22;63149;48.086;-1.606;2022-10-16T05:06:44;14.80;99.90
39277;DHT22;63149;48.086;-1.606;2022-10-16T05:09:11;14.90;99.90
39277;DHT22;63149;48.086;-1.606;2022-10-16T05:11:38;14.90;99.90
39277;DHT22;63149;48.086;-1.606;2022-10-16T05:14:04;14.90;99.90
39277;DHT22;63149;48.086;-1.606;2022-10-16T05:16:31;14.90;99.90
39277;DHT22;63149;48.086;-1.606;2022-10-16T05:18:59;14.90;99.90
39277;DHT22;63149;48.086;-1.606;2022-10-16T05:21:26;15.00;99.90
39277;DHT22;63149;48.086;-1.606;2022-10-16T05:23:53;15.00;99.90
39277;DHT22;63149;48.086;-1.606;2022-10-16T05:26:20;15.00;99.90
39277;DHT22;63149;48.086;-1.606;2022-10-16T05:28:47;15.00;99.90
39277;DHT22;63149;48.086;-1.606;2022-10-16T05:31:14;15.10;99.90
39277;DHT22;63149;48.086;-1.606;2022-10-16T05:33:40;15.10;99.90
39277;DHT22;63149;48.086;-1.606;2022-10-16T05:36:10;15.10;99.90
39277;DHT22;63149;48.086;-1.606;2022-10-16T05:38:38;15.10;99.90
39277;DHT22;63149;48.086;-1.606;2022-10-16T05:41:05;15.10;99.90
39277;DHT22;63149;48.086;-1.606;2022-10-16T05:43:32;15.10;99.90
39277;DHT22;63149;48.086;-1.606;2022-10-16T05:45:59;15.20;99.90
39277;DHT22;63149;48.086;-1.606;2022-10-16T05:48:27;15.20;99.90
39277;DHT22;63149;48.086;-1.606;2022-10-16T05:50:57;15.20;99.90
39277;DHT22;63149;48.086;-1.606;2022-10-16T05:53:26;15.20;99.90
39277;DHT22;63149;48.086;-1.606;2022-10-16T05:55:53;15.20;99.90
39277;DHT22;63149;48.086;-1.606;2022-10-16T05:58:19;15.20;99.90
39277;DHT22;63149;48.086;-1.606;2022-10-16T06:00:52;15.20;99.90
39277;DHT22;63149;48.086;-1.606;2022-10-16T06:03:19;15.20;99.90
39277;DHT22;63149;48.086;-1.606;2022-10-16T06:05:46;15.20;99.90
39277;DHT22;63149;48.086;-1.606;2022-10-16T06:08:13;15.20;99.90
39277;DHT22;63149;48.086;-1.606;2022-10-16T06:10:41;15.20;99.90
39277;DHT22;63149;48.086;-1.606;2022-10-16T06:13:09;15.20;99.90
39277;DHT22;63149;48.086;-1.606;2022-10-16T06:15:35;15.20;99.90
39277;DHT22;63149;48.086;-1.606;2022-10-16T06:18:04;15.20;99.90
39277;DHT22;63149;48.086;-1.606;2022-10-16T06:20:31;15.20;99.90
39277;DHT22;63149;48.086;-1.606;2022-10-16T06:22:57;15.20;99.90
39277;DHT22;63149;48.086;-1.606;2022-10-16T06:25:24;15.20;99.90
39277;DHT22;63149;48.086;-1.606;2022-10-16T06:27:52;15.20;99.90
39277;DHT22;63149;48.086;-1.606;2022-10-16T06:30:19;15.30;99.90
39277;DHT22;63149;48.086;-1.606;2022-10-16T06:32:46;15.30;99.90
39277;DHT22;63149;48.086;-1.606;2022-10-16T06:35:12;15.20;99.90
39277;DHT22;63149;48.086;-1.606;2022-10-16T06:37:39;15.20;99.90
39277;DHT22;63149;48.086;-1.606;2022-10-16T06:40:06;15.30;99.90
39277;DHT22;63149;48.086;-1.606;2022-10-16T06:42:33;15.20;99.90
39277;DHT22;63149;48.086;-1.606;2022-10-16T06:45:01;15.20;99.90
39277;DHT22;63149;48.086;-1.606;2022-10-16T06:47:28;15.20;99.90
39277;DHT22;63149;48.086;-1.606;2022-10-16T06:49:54;15.20;99.90
39277;DHT22;63149;48.086;-1.606;2022-10-16T06:52:21;15.20;99.90
39277;DHT22;63149;48.086;-1.606;2022-10-16T06:54:49;15.20;99.90
39277;DHT22;63149;48.086;-1.606;2022-10-16T06:57:16;15.20;99.90
39277;DHT22;63149;48.086;-1.606;2022-10-16T06:59:42;15.30;99.90
39277;DHT22;63149;48.086;-1.606;2022-10-16T07:02:10;15.30;99.90
39277;DHT22;63149;48.086;-1.606;2022-10-16T07:04:37;15.30;99.90
39277;DHT22;63149;48.086;-1.606;2022-10-16T07:07:04;15.30;99.90
39277;DHT22;63149;48.086;-1.606;2022-10-16T07:09:30;15.30;99.90
39277;DHT22;63149;48.086;-1.606;2022-10-16T07:11:57;15.30;99.90
39277;DHT22;63149;48.086;-1.606;2022-10-16T07:14:24;15.40;99.90
39277;DHT22;63149;48.086;-1.606;2022-10-16T07:16:50;15.40;99.90
39277;DHT22;63149;48.086;-1.606;2022-10-16T07:19:18;15.30;99.90
39277;DHT22;63149;48.086;-1.606;2022-10-16T07:21:45;15.30;99.90
39277;DHT22;63149;48.086;-1.606;2022-10-16T07:24:12;15.20;99.90
39277;DHT22;63149;48.086;-1.606;2022-10-16T07:26:39;15.20;99.90
39277;DHT22;63149;48.086;-1.606;2022-10-16T07:29:07;15.20;99.90
39277;DHT22;63149;48.086;-1.606;2022-10-16T07:31:33;15.20;99.90
39277;DHT22;63149;48.086;-1.606;2022-10-16T07:34:00;15.20;99.90
39277;DHT22;63149;48.086;-1.606;2022-10-16T07:36:28;15.20;99.90
39277;DHT22;63149;48.086;-1.606;2022-10-16T07:38:55;15.20;99.90
39277;DHT22;63149;48.086;-1.606;2022-10-16T07:41:22;15.40;99.90
39277;DHT22;63149;48.086;-1.606;2022-10-16T07:43:49;15.50;99.90
39277;DHT22;63149;48.086;-1.606;2022-10-16T07:46:16;15.50;99.90
39277;DHT22;63149;48.086;-1.606;2022-10-16T07:48:44;15.70;99.90
39277;DHT22;63149;48.086;-1.606;2022-10-16T07:51:13;15.80;99.90
39277;DHT22;63149;48.086;-1.606;2022-10-16T07:53:41;15.90;99.90
39277;DHT22;63149;48.086;-1.606;2022-10-16T07:56:08;16.00;99.90
39277;DHT22;63149;48.086;-1.606;2022-10-16T07:58:35;16.00;99.90
39277;DHT22;63149;48.086;-1.606;2022-10-16T08:01:02;16.10;99.90
39277;DHT22;63149;48.086;-1.606;2022-10-16T08:03:29;16.10;99.90
39277;DHT22;63149;48.086;-1.606;2022-10-16T08:05:56;16.10;99.90
39277;DHT22;63149;48.086;-1.606;2022-10-16T08:08:23;16.00;99.90
39277;DHT22;63149;48.086;-1.606;2022-10-16T08:10:51;16.00;99.90
39277;DHT22;63149;48.086;-1.606;2022-10-16T08:13:18;16.10;99.90
39277;DHT22;63149;48.086;-1.606;2022-10-16T08:15:45;16.20;99.90
39277;DHT22;63149;48.086;-1.606;2022-10-16T08:18:12;16.20;99.90
39277;DHT22;63149;48.086;-1.606;2022-10-16T08:20:39;16.40;99.90
39277;DHT22;63149;48.086;-1.606;2022-10-16T08:23:06;16.50;99.90
39277;DHT22;63149;48.086;-1.606;2022-10-16T08:25:34;16.60;99.90
39277;DHT22;63149;48.086;-1.606;2022-10-16T08:28:02;16.70;99.90
39277;DHT22;63149;48.086;-1.606;2022-10-16T08:30:29;16.70;99.90
39277;DHT22;63149;48.086;-1.606;2022-10-16T08:32:56;16.70;99.90
39277;DHT22;63149;48.086;-1.606;2022-10-16T08:35:23;16.70;99.90
39277;DHT22;63149;48.086;-1.606;2022-10-16T08:37:50;16.70;99.90
39277;DHT22;63149;48.086;-1.606;2022-10-16T08:40:18;16.70;99.90
39277;DHT22;63149;48.086;-1.606;2022-10-16T08:42:49;16.70;99.90
39277;DHT22;63149;48.086;-1.606;2022-10-16T08:45:23;16.80;99.90
39277;DHT22;63149;48.086;-1.606;2022-10-16T08:47:54;16.90;99.90
39277;DHT22;63149;48.086;-1.606;2022-10-16T08:50:25;17.00;99.90
39277;DHT22;63149;48.086;-1.606;2022-10-16T08:52:53;17.00;99.90
39277;DHT22;63149;48.086;-1.606;2022-10-16T08:55:28;17.00;99.90
39277;DHT22;63149;48.086;-1.606;2022-10-16T08:57:55;17.00;99.90
39277;DHT22;63149;48.086;-1.606;2022-10-16T09:00:24;17.00;99.90
39277;DHT22;63149;48.086;-1.606;2022-10-16T09:02:52;17.10;99.90
39277;DHT22;63149;48.086;-1.606;2022-10-16T09:05:23;17.20;99.90
39277;DHT22;63149;48.086;-1.606;2022-10-16T09:07:54;17.20;99.90
39277;DHT22;63149;48.086;-1.606;2022-10-16T09:10:27;17.30;99.90
39277;DHT22;63149;48.086;-1.606;2022-10-16T09:12:58;17.20;99.90
39277;DHT22;63149;48.086;-1.606;2022-10-16T09:15:31;17.20;99.90
39277;DHT22;63149;48.086;-1.606;2022-10-16T09:18:02;17.30;99.90
39277;DHT22;63149;48.086;-1.606;2022-10-16T09:20:33;17.30;99.90
39277;DHT22;63149;48.086;-1.606;2022-10-16T09:23:10;17.30;99.90
39277;DHT22;63149;48.086;-1.606;2022-10-16T09:25:38;17.40;99.90
39277;DHT22;63149;48.086;-1.606;2022-10-16T09:28:07;17.30;99.90
39277;DHT22;63149;48.086;-1.606;2022-10-16T09:30:36;17.30;99.90
39277;DHT22;63149;48.086;-1.606;2022-10-16T09:33:04;17.20;99.90
39277;DHT22;63149;48.086;-1.606;2022-10-16T09:35:31;17.20;99.90
39277;DHT22;63149;48.086;-1.606;2022-10-16T09:37:59;17.20;99.90
39277;DHT22;63149;48.086;-1.606;2022-10-16T09:40:26;17.10;99.90
39277;DHT22;63149;48.086;-1.606;2022-10-16T09:42:56;17.10;99.90
39277;DHT22;63149;48.086;-1.606;2022-10-16T09:45:24;17.00;99.90
39277;DHT22;63149;48.086;-1.606;2022-10-16T09:47:52;16.90;99.90
39277;DHT22;63149;48.086;-1.606;2022-10-16T09:50:20;17.00;99.90
39277;DHT22;63149;48.086;-1.606;2022-10-16T09:52:48;17.00;99.90
39277;DHT22;63149;48.086;-1.606;2022-10-16T09:55:15;17.00;99.90
39277;DHT22;63149;48.086;-1.606;2022-10-16T09:57:48;17.10;99.90
39277;DHT22;63149;48.086;-1.606;2022-10-16T10:00:15;17.20;99.90
39277;DHT22;63149;48.086;-1.606;2022-10-16T10:02:42;17.20;99.90
39277;DHT22;63149;48.086;-1.606;2022-10-16T10:05:18;17.40;99.90
39277;DHT22;63149;48.086;-1.606;2022-10-16T10:07:46;17.40;99.90
39277;DHT22;63149;48.086;-1.606;2022-10-16T10:10:19;17.40;99.90
39277;DHT22;63149;48.086;-1.606;2022-10-16T10:12:46;17.60;99.90
39277;DHT22;63149;48.086;-1.606;2022-10-16T10:15:13;17.70;99.90
39277;DHT22;63149;48.086;-1.606;2022-10-16T10:17:46;17.70;99.90
39277;DHT22;63149;48.086;-1.606;2022-10-16T10:20:18;17.70;99.90
39277;DHT22;63149;48.086;-1.606;2022-10-16T10:22:49;17.60;99.90
39277;DHT22;63149;48.086;-1.606;2022-10-16T10:25:19;17.50;99.90
39277;DHT22;63149;48.086;-1.606;2022-10-16T10:30:35;17.30;99.90
39277;DHT22;63149;48.086;-1.606;2022-10-16T10:33:08;17.20;99.90
39277;DHT22;63149;48.086;-1.606;2022-10-16T10:35:39;17.10;99.90
39277;DHT22;63149;48.086;-1.606;2022-10-16T10:38:16;17.00;99.90
39277;DHT22;63149;48.086;-1.606;2022-10-16T10:40:49;16.90;99.90
39277;DHT22;63149;48.086;-1.606;2022-10-16T10:43:20;16.90;99.90
39277;DHT22;63149;48.086;-1.606;2022-10-16T10:45:50;17.00;99.90
39277;DHT22;63149;48.086;-1.606;2022-10-16T10:48:21;16.90;99.90
39277;DHT22;63149;48.086;-1.606;2022-10-16T10:50:51;16.90;99.90
39277;DHT22;63149;48.086;-1.606;2022-10-16T10:53:24;16.90;99.90
39277;DHT22;63149;48.086;-1.606;2022-10-16T10:55:53;16.90;99.90
39277;DHT22;63149;48.086;-1.606;2022-10-16T11:01:09;16.90;99.90
39277;DHT22;63149;48.086;-1.606;2022-10-16T11:03:42;16.90;99.90
39277;DHT22;63149;48.086;-1.606;2022-10-16T11:06:12;16.80;99.90
39277;DHT22;63149;48.086;-1.606;2022-10-16T11:08:45;16.80;99.90
39277;DHT22;63149;48.086;-1.606;2022-10-16T11:11:14;16.70;99.90
39277;DHT22;63149;48.086;-1.606;2022-10-16T11:13:43;16.70;99.90
39277;DHT22;63149;48.086;-1.606;2022-10-16T11:16:13;16.70;99.90
39277;DHT22;63149;48.086;-1.606;2022-10-16T11:18:42;16.70;99.90
39277;DHT22;63149;48.086;-1.606;2022-10-16T11:21:11;16.70;99.90
39277;DHT22;63149;48.086;-1.606;2022-10-16T11:23:40;16.70;99.90
39277;DHT22;63149;48.086;-1.606;2022-10-16T11:26:11;16.60;99.90
39277;DHT22;63149;48.086;-1.606;2022-10-16T11:28:39;16.60;99.90
39277;DHT22;63149;48.086;-1.606;2022-10-16T11:31:10;16.60;99.90
39277;DHT22;63149;48.086;-1.606;2022-10-16T11:33:39;16.60;99.90
39277;DHT22;63149;48.086;-1.606;2022-10-16T11:36:08;16.60;99.90
39277;DHT22;63149;48.086;-1.606;2022-10-16T11:38:38;16.60;99.90
39277;DHT22;63149;48.086;-1.606;2022-10-16T11:41:10;16.60;99.90
39277;DHT22;63149;48.086;-1.606;2022-10-16T11:43:45;16.20;99.90
39277;DHT22;63149;48.086;-1.606;2022-10-16T11:46:15;16.10;99.90
39277;DHT22;63149;48.086;-1.606;2022-10-16T11:48:45;16.10;99.90
39277;DHT22;63149;48.086;-1.606;2022-10-16T11:51:14;16.00;99.90
39277;DHT22;63149;48.086;-1.606;2022-10-16T11:53:44;15.90;99.90
39277;DHT22;63149;48.086;-1.606;2022-10-16T11:56:12;15.90;99.90
39277;DHT22;63149;48.086;-1.606;2022-10-16T11:58:41;15.70;99.90
39277;DHT22;63149;48.086;-1.606;2022-10-16T12:01:17;15.40;99.90
39277;DHT22;63149;48.086;-1.606;2022-10-16T12:03:45;15.30;99.90
39277;DHT22;63149;48.086;-1.606;2022-10-16T12:06:15;15.40;99.90
39277;DHT22;63149;48.086;-1.606;2022-10-16T12:08:45;15.50;99.90
39277;DHT22;63149;48.086;-1.606;2022-10-16T12:11:20;15.60;99.90
39277;DHT22;63149;48.086;-1.606;2022-10-16T12:13:49;15.70;99.90
39277;DHT22;63149;48.086;-1.606;2022-10-16T12:16:23;15.60;99.90
39277;DHT22;63149;48.086;-1.606;2022-10-16T12:19:02;15.70;99.90
39277;DHT22;63149;48.086;-1.606;2022-10-16T12:21:30;15.70;99.90
39277;DHT22;63149;48.086;-1.606;2022-10-16T12:23:58;15.80;99.90
39277;DHT22;63149;48.086;-1.606;2022-10-16T12:26:25;15.80;99.90
39277;DHT22;63149;48.086;-1.606;2022-10-16T12:28:52;15.90;99.90
39277;DHT22;63149;48.086;-1.606;2022-10-16T12:31:19;16.00;99.90
39277;DHT22;63149;48.086;-1.606;2022-10-16T12:33:55;16.00;99.90
39277;DHT22;63149;48.086;-1.606;2022-10-16T12:36:26;16.00;99.90
39277;DHT22;63149;48.086;-1.606;2022-10-16T12:38:53;16.00;99.90
39277;DHT22;63149;48.086;-1.606;2022-10-16T12:41:24;16.00;99.90
39277;DHT22;63149;48.086;-1.606;2022-10-16T12:43:51;16.10;99.90
39277;DHT22;63149;48.086;-1.606;2022-10-16T12:46:23;16.20;99.90
39277;DHT22;63149;48.086;-1.606;2022-10-16T12:48:49;16.20;99.90
39277;DHT22;63149;48.086;-1.606;2022-10-16T12:51:25;16.30;99.90
39277;DHT22;63149;48.086;-1.606;2022-10-16T12:53:58;16.30;99.90
39277;DHT22;63149;48.086;-1.606;2022-10-16T12:56:26;16.40;99.90
39277;DHT22;63149;48.086;-1.606;2022-10-16T12:58:59;16.50;99.90
39277;DHT22;63149;48.086;-1.606;2022-10-16T13:01:36;16.60;99.90
39277;DHT22;63149;48.086;-1.606;2022-10-16T13:06:55;16.90;99.90
39277;DHT22;63149;48.086;-1.606;2022-10-16T13:09:30;17.10;99.90
39277;DHT22;63149;48.086;-1.606;2022-10-16T13:12:04;17.30;99.90
39277;DHT22;63149;48.086;-1.606;2022-10-16T13:14:41;17.40;99.90
39277;DHT22;63149;48.086;-1.606;2022-10-16T13:17:12;17.50;99.90
39277;DHT22;63149;48.086;-1.606;2022-10-16T13:19:41;17.60;99.90
39277;DHT22;63149;48.086;-1.606;2022-10-16T13:22:15;17.70;99.90
39277;DHT22;63149;48.086;-1.606;2022-10-16T13:24:48;17.70;99.90
39277;DHT22;63149;48.086;-1.606;2022-10-16T13:27:20;17.70;99.90
39277;DHT22;63149;48.086;-1.606;2022-10-16T13:29:49;17.70;99.90
39277;DHT22;63149;48.086;-1.606;2022-10-16T13:32:18;17.70;99.90
39277;DHT22;63149;48.086;-1.606;2022-10-16T13:34:47;17.70;99.90
39277;DHT22;63149;48.086;-1.606;2022-10-16T13:37:19;17.70;99.90
39277;DHT22;63149;48.086;-1.606;2022-10-16T13:39:46;17.80;99.90
39277;DHT22;63149;48.086;-1.606;2022-10-16T13:42:22;17.80;99.90
39277;DHT22;63149;48.086;-1.606;2022-10-16T13:44:49;17.80;99.90
39277;DHT22;63149;48.086;-1.606;2022-10-16T13:47:17;17.90;99.90
39277;DHT22;63149;48.086;-1.606;2022-10-16T13:49:45;17.80;99.90
39277;DHT22;63149;48.086;-1.606;2022-10-16T13:52:16;17.90;99.90
39277;DHT22;63149;48.086;-1.606;2022-10-16T13:54:44;18.10;99.90
39277;DHT22;63149;48.086;-1.606;2022-10-16T13:57:12;18.20;99.90
39277;DHT22;63149;48.086;-1.606;2022-10-16T13:59:39;18.30;99.90
39277;DHT22;63149;48.086;-1.606;2022-10-16T14:02:08;18.30;99.90
39277;DHT22;63149;48.086;-1.606;2022-10-16T14:04:41;18.40;99.90
39277;DHT22;63149;48.086;-1.606;2022-10-16T14:07:11;18.30;99.90
39277;DHT22;63149;48.086;-1.606;2022-10-16T14:09:39;18.40;99.90
39277;DHT22;63149;48.086;-1.606;2022-10-16T14:12:09;18.40;99.90
39277;DHT22;63149;48.086;-1.606;2022-10-16T14:14:39;18.40;99.90
39277;DHT22;63149;48.086;-1.606;2022-10-16T14:17:12;18.50;99.90
39277;DHT22;63149;48.086;-1.606;2022-10-16T14:19:39;18.50;99.90
39277;DHT22;63149;48.086;-1.606;2022-10-16T14:22:12;18.50;99.90
39277;DHT22;63149;48.086;-1.606;2022-10-16T14:24:44;18.50;99.90
39277;DHT22;63149;48.086;-1.606;2022-10-16T14:27:23;18.50;99.90
39277;DHT22;63149;48.086;-1.606;2022-10-16T14:30:01;18.50;99.90
39277;DHT22;63149;48.086;-1.606;2022-10-16T14:32:28;18.50;99.90
39277;DHT22;63149;48.086;-1.606;2022-10-16T14:34:54;18.50;99.90
39277;DHT22;63149;48.086;-1.606;2022-10-16T14:37:22;18.60;99.90
39277;DHT22;63149;48.086;-1.606;2022-10-16T14:39:49;18.60;99.90
39277;DHT22;63149;48.086;-1.606;2022-10-16T14:42:16;18.60;99.90
39277;DHT22;63149;48.086;-1.606;2022-10-16T14:44:46;18.70;99.90
39277;DHT22;63149;48.086;-1.606;2022-10-16T14:47:15;18.60;99.90
39277;DHT22;63149;48.086;-1.606;2022-10-16T14:49:47;18.60;99.90
39277;DHT22;63149;48.086;-1.606;2022-10-16T14:52:14;18.80;99.90
39277;DHT22;63149;48.086;-1.606;2022-10-16T14:54:40;18.80;99.90
39277;DHT22;63149;48.086;-1.606;2022-10-16T14:57:13;18.70;99.90
39277;DHT22;63149;48.086;-1.606;2022-10-16T14:59:42;18.70;99.90
39277;DHT22;63149;48.086;-1.606;2022-10-16T15:02:15;18.80;99.90
39277;DHT22;63149;48.086;-1.606;2022-10-16T15:04:43;18.80;99.90
39277;DHT22;63149;48.086;-1.606;2022-10-16T15:07:10;18.80;99.90
39277;DHT22;63149;48.086;-1.606;2022-10-16T15:09:37;18.80;99.90
39277;DHT22;63149;48.086;-1.606;2022-10-16T15:12:03;18.90;99.90
39277;DHT22;63149;48.086;-1.606;2022-10-16T15:14:30;18.90;99.90
39277;DHT22;63149;48.086;-1.606;2022-10-16T15:16:57;18.90;99.90
39277;DHT22;63149;48.086;-1.606;2022-10-16T15:19:25;18.90;99.90
39277;DHT22;63149;48.086;-1.606;2022-10-16T15:21:52;19.00;99.90
39277;DHT22;63149;48.086;-1.606;2022-10-16T15:24:18;18.90;99.90
39277;DHT22;63149;48.086;-1.606;2022-10-16T15:26:45;18.90;99.90
39277;DHT22;63149;48.086;-1.606;2022-10-16T15:29:12;18.90;99.90
39277;DHT22;63149;48.086;-1.606;2022-10-16T15:31:39;19.00;99.90
39277;DHT22;63149;48.086;-1.606;2022-10-16T15:34:08;19.00;99.90
39277;DHT22;63149;48.086;-1.606;2022-10-16T15:36:36;19.00;99.90
39277;DHT22;63149;48.086;-1.606;2022-10-16T15:39:04;19.00;99.90
39277;DHT22;63149;48.086;-1.606;2022-10-16T15:41:30;19.10;99.90
39277;DHT22;63149;48.086;-1.606;2022-10-16T15:43:57;19.00;99.90
39277;DHT22;63149;48.086;-1.606;2022-10-16T15:46:24;19.10;99.90
39277;DHT22;63149;48.086;-1.606;2022-10-16T15:48:51;19.10;99.90
39277;DHT22;63149;48.086;-1.606;2022-10-16T15:51:21;19.10;99.90
39277;DHT22;63149;48.086;-1.606;2022-10-16T15:53:49;19.00;99.90
39277;DHT22;63149;48.086;-1.606;2022-10-16T15:56:17;19.00;99.90
39277;DHT22;63149;48.086;-1.606;2022-10-16T15:58:44;18.90;99.90
39277;DHT22;63149;48.086;-1.606;2022-10-16T16:01:11;19.00;99.90
39277;DHT22;63149;48.086;-1.606;2022-10-16T16:03:38;19.00;99.90
39277;DHT22;63149;48.086;-1.606;2022-10-16T16:06:06;19.00;99.90
39277;DHT22;63149;48.086;-1.606;2022-10-16T16:08:33;19.00;99.90
39277;DHT22;63149;48.086;-1.606;2022-10-16T16:11:02;19.00;99.90
39277;DHT22;63149;48.086;-1.606;2022-10-16T16:13:29;18.90;99.90
39277;DHT22;63149;48.086;-1.606;2022-10-16T16:15:56;19.00;99.90
39277;DHT22;63149;48.086;-1.606;2022-10-16T16:18:23;19.00;99.90
39277;DHT22;63149;48.086;-1.606;2022-10-16T16:20:50;19.00;99.90
39277;DHT22;63149;48.086;-1.606;2022-10-16T16:23:17;19.00;99.90
39277;DHT22;63149;48.086;-1.606;2022-10-16T16:25:44;19.00;99.90
39277;DHT22;63149;48.086;-1.606;2022-10-16T16:28:12;19.00;99.90
39277;DHT22;63149;48.086;-1.606;2022-10-16T16:30:39;18.90;99.90
39277;DHT22;63149;48.086;-1.606;2022-10-16T16:33:06;18.90;99.90
39277;DHT22;63149;48.086;-1.606;2022-10-16T16:35:33;18.90;99.90
39277;DHT22;63149;48.086;-1.606;2022-10-16T16:37:59;18.90;99.90
39277;DHT22;63149;48.086;-1.606;2022-10-16T16:40:26;18.90;99.90
39277;DHT22;63149;48.086;-1.606;2022-10-16T16:42:53;18.90;99.90
39277;DHT22;63149;48.086;-1.606;2022-10-16T16:45:21;18.90;99.90
39277;DHT22;63149;48.086;-1.606;2022-10-16T16:47:48;18.90;99.90
39277;DHT22;63149;48.086;-1.606;2022-10-16T16:50:15;18.90;99.90
39277;DHT22;63149;48.086;-1.606;2022-10-16T16:52:42;18.90;99.90
39277;DHT22;63149;48.086;-1.606;2022-10-16T16:55:08;18.80;99.90
39277;DHT22;63149;48.086;-1.606;2022-10-16T16:57:35;18.80;99.90
39277;DHT22;63149;48.086;-1.606;2022-10-16T17:00:03;18.80;99.90
39277;DHT22;63149;48.086;-1.606;2022-10-16T17:02:31;18.80;99.90
39277;DHT22;63149;48.086;-1.606;2022-10-16T17:04:58;18.80;99.90
39277;DHT22;63149;48.086;-1.606;2022-10-16T17:07:25;18.70;99.90
39277;DHT22;63149;48.086;-1.606;2022-10-16T17:09:52;18.70;99.90
39277;DHT22;63149;48.086;-1.606;2022-10-16T17:12:19;18.70;99.90
39277;DHT22;63149;48.086;-1.606;2022-10-16T17:14:45;18.70;99.90
39277;DHT22;63149;48.086;-1.606;2022-10-16T17:17:12;18.60;99.90
39277;DHT22;63149;48.086;-1.606;2022-10-16T17:19:40;18.70;99.90
39277;DHT22;63149;48.086;-1.606;2022-10-16T17:22:07;18.60;99.90
39277;DHT22;63149;48.086;-1.606;2022-10-16T17:24:34;18.60;99.90
39277;DHT22;63149;48.086;-1.606;2022-10-16T17:27:00;18.60;99.90
39277;DHT22;63149;48.086;-1.606;2022-10-16T17:29:28;18.60;99.90
39277;DHT22;63149;48.086;-1.606;2022-10-16T17:31:55;18.60;99.90
39277;DHT22;63149;48.086;-1.606;2022-10-16T17:34:23;18.60;99.90
39277;DHT22;63149;48.086;-1.606;2022-10-16T17:36:51;18.60;99.90
39277;DHT22;63149;48.086;-1.606;2022-10-16T17:39:18;18.60;99.90
39277;DHT22;63149;48.086;-1.606;2022-10-16T17:41:46;18.60;99.90
39277;DHT22;63149;48.086;-1.606;2022-10-16T17:44:13;18.50;99.90
39277;DHT22;63149;48.086;-1.606;2022-10-16T17:46:44;18.50;99.90
39277;DHT22;63149;48.086;-1.606;2022-10-16T17:49:11;18.50;99.90
39277;DHT22;63149;48.086;-1.606;2022-10-16T17:51:38;18.40;99.90
39277;DHT22;63149;48.086;-1.606;2022-10-16T17:54:06;18.40;99.90
39277;DHT22;63149;48.086;-1.606;2022-10-16T17:56:33;18.40;99.90
39277;DHT22;63149;48.086;-1.606;2022-10-16T17:59:01;18.40;99.90
39277;DHT22;63149;48.086;-1.606;2022-10-16T18:01:28;18.30;99.90
39277;DHT22;63149;48.086;-1.606;2022-10-16T18:03:56;18.30;99.90
39277;DHT22;63149;48.086;-1.606;2022-10-16T18:06:23;18.30;99.90
39277;DHT22;63149;48.086;-1.606;2022-10-16T18:08:50;18.20;99.90
39277;DHT22;63149;48.086;-1.606;2022-10-16T18:11:19;18.20;99.90
39277;DHT22;63149;48.086;-1.606;2022-10-16T18:13:46;18.10;99.90
39277;DHT22;63149;48.086;-1.606;2022-10-16T18:16:13;18.10;99.90
39277;DHT22;63149;48.086;-1.606;2022-10-16T18:18:40;18.10;99.90
39277;DHT22;63149;48.086;-1.606;2022-10-16T18:21:08;18.10;99.90
39277;DHT22;63149;48.086;-1.606;2022-10-16T18:23:37;18.00;99.90
39277;DHT22;63149;48.086;-1.606;2022-10-16T18:26:04;18.00;99.90
39277;DHT22;63149;48.086;-1.606;2022-10-16T18:28:33;18.00;99.90
39277;DHT22;63149;48.086;-1.606;2022-10-16T18:31:00;18.00;99.90
39277;DHT22;63149;48.086;-1.606;2022-10-16T18:33:27;18.00;99.90
39277;DHT22;63149;48.086;-1.606;2022-10-16T18:35:55;18.00;99.90
39277;DHT22;63149;48.086;-1.606;2022-10-16T18:38:22;17.90;99.90
39277;DHT22;63149;48.086;-1.606;2022-10-16T18:40:49;17.90;99.90
39277;DHT22;63149;48.086;-1.606;2022-10-16T18:43:15;17.90;99.90
39277;DHT22;63149;48.086;-1.606;2022-10-16T18:45:53;17.90;99.90
39277;DHT22;63149;48.086;-1.606;2022-10-16T18:48:20;17.90;99.90
39277;DHT22;63149;48.086;-1.606;2022-10-16T18:50:46;17.80;99.90
39277;DHT22;63149;48.086;-1.606;2022-10-16T18:53:13;17.80;99.90
39277;DHT22;63149;48.086;-1.606;2022-10-16T18:55:40;17.80;99.90
39277;DHT22;63149;48.086;-1.606;2022-10-16T18:58:07;17.80;99.90
39277;DHT22;63149;48.086;-1.606;2022-10-16T19:00:34;17.70;99.90
39277;DHT22;63149;48.086;-1.606;2022-10-16T19:03:02;17.70;99.90
39277;DHT22;63149;48.086;-1.606;2022-10-16T19:05:29;17.70;99.90
39277;DHT22;63149;48.086;-1.606;2022-10-16T19:07:58;17.60;99.90
39277;DHT22;63149;48.086;-1.606;2022-10-16T19:10:25;17.60;99.90
39277;DHT22;63149;48.086;-1.606;2022-10-16T19:12:52;17.60;99.90
39277;DHT22;63149;48.086;-1.606;2022-10-16T19:15:19;17.60;99.90
39277;DHT22;63149;48.086;-1.606;2022-10-16T19:17:46;17.50;99.90
39277;DHT22;63149;48.086;-1.606;2022-10-16T19:20:14;17.50;99.90
39277;DHT22;63149;48.086;-1.606;2022-10-16T19:22:41;17.50;99.90
39277;DHT22;63149;48.086;-1.606;2022-10-16T19:25:21;17.40;99.90
39277;DHT22;63149;48.086;-1.606;2022-10-16T19:27:48;17.40;99.90
39277;DHT22;63149;48.086;-1.606;2022-10-16T19:30:15;17.40;99.90
39277;DHT22;63149;48.086;-1.606;2022-10-16T19:32:42;17.30;99.90
39277;DHT22;63149;48.086;-1.606;2022-10-16T19:35:10;17.30;99.90
39277;DHT22;63149;48.086;-1.606;2022-10-16T19:37:38;17.30;99.90
39277;DHT22;63149;48.086;-1.606;2022-10-16T19:40:05;17.30;99.90
39277;DHT22;63149;48.086;-1.606;2022-10-16T19:42:32;17.30;99.90
39277;DHT22;63149;48.086;-1.606;2022-10-16T19:45:00;17.20;99.90
39277;DHT22;63149;48.086;-1.606;2022-10-16T19:47:27;17.20;99.90
39277;DHT22;63149;48.086;-1.606;2022-10-16T19:49:54;17.20;99.90
39277;DHT22;63149;48.086;-1.606;2022-10-16T19:52:21;17.10;99.90
39277;DHT22;63149;48.086;-1.606;2022-10-16T19:54:49;17.10;99.90
39277;DHT22;63149;48.086;-1.606;2022-10-16T19:57:15;17.20;99.90
39277;DHT22;63149;48.086;-1.606;2022-10-16T19:59:42;17.10;99.90
39277;DHT22;63149;48.086;-1.606;2022-10-16T20:02:09;17.20;99.90
39277;DHT22;63149;48.086;-1.606;2022-10-16T20:04:36;17.20;99.90
39277;DHT22;63149;48.086;-1.606;2022-10-16T20:07:03;17.10;99.90
39277;DHT22;63149;48.086;-1.606;2022-10-16T20:09:31;17.20;99.90
39277;DHT22;63149;48.086;-1.606;2022-10-16T20:11:59;17.10;99.90
39277;DHT22;63149;48.086;-1.606;2022-10-16T20:14:26;17.20;99.90
39277;DHT22;63149;48.086;-1.606;2022-10-16T20:16:53;17.10;99.90
39277;DHT22;63149;48.086;-1.606;2022-10-16T20:19:19;17.20;99.90
39277;DHT22;63149;48.086;-1.606;2022-10-16T20:21:46;17.20;99.90
39277;DHT22;63149;48.086;-1.606;2022-10-16T20:24:13;17.20;99.90
39277;DHT22;63149;48.086;-1.606;2022-10-16T20:26:40;17.20;99.90
39277;DHT22;63149;48.086;-1.606;2022-10-16T20:29:08;17.20;99.90
39277;DHT22;63149;48.086;-1.606;2022-10-16T20:31:35;17.20;99.90